createdAt,value
2022-12-11T00:00:48.419Z,79.30
2022-12-11T00:03:16.627Z,80.37
2022-12-11T00:05:44.407Z,79.17
2022-12-11T00:08:11.947Z,79.49
2022-12-11T00:10:38.772Z,79.46
2022-12-11T00:13:06.532Z,79.95
2022-12-11T00:15:33.812Z,78.32
2022-12-11T00:18:00.404Z,80.59
2022-12-11T00:20:27.115Z,80.91
2022-12-11T00:22:53.640Z,80.90
2022-12-11T00:25:20.228Z,80.89
2022-12-11T00:27:47.298Z,79.08
2022-12-11T00:30:14.502Z,81.27
2022-12-11T00:32:41.079Z,80.07
2022-12-11T00:35:08.462Z,79.89
2022-12-11T00:37:35.755Z,81.62
2022-12-11T00:40:03.241Z,81.45
2022-12-11T00:42:29.770Z,82.16
2022-12-11T00:44:56.412Z,80.78
2022-12-11T00:47:22.976Z,81.93
2022-12-11T00:49:50.105Z,82.41
2022-12-11T00:52:17.854Z,82.18
2022-12-11T00:54:45.017Z,82.84
2022-12-11T00:57:11.594Z,82.84
2022-12-11T00:59:38.708Z,82.05
2022-12-11T01:02:05.365Z,81.20
2022-12-11T01:04:35.211Z,79.92
2022-12-11T01:07:01.738Z,82.77
2022-12-11T01:09:48.565Z,81.05
2022-12-11T01:12:15.118Z,81.24
2022-12-11T01:14:41.677Z,81.82
2022-12-11T01:17:08.202Z,82.08
2022-12-11T01:19:34.726Z,82.61
2022-12-11T01:22:01.357Z,81.51
2022-12-11T01:24:28.505Z,81.55
2022-12-11T01:26:56.961Z,82.63
2022-12-11T01:29:23.480Z,82.83
2022-12-11T01:31:50.010Z,81.58
2022-12-11T01:34:16.539Z,82.58
2022-12-11T01:36:43.686Z,83.19
2022-12-11T01:39:10.270Z,82.02
2022-12-11T01:41:36.767Z,81.61
2022-12-11T01:44:29.246Z,82.25
2022-12-11T01:46:56.589Z,83.41
2022-12-11T01:49:26.104Z,83.07
2022-12-11T01:51:58.020Z,83.75
2022-12-11T01:54:27.513Z,82.69
2022-12-11T01:56:58.419Z,81.24
2022-12-11T01:59:29.124Z,83.42
2022-12-11T02:02:10.033Z,83.41
2022-12-11T02:04:39.007Z,82.03
2022-12-11T02:07:06.230Z,82.16
2022-12-11T02:09:35.314Z,82.43
2022-12-11T02:12:03.739Z,83.18
2022-12-11T02:14:43.500Z,81.57
2022-12-11T02:17:19.550Z,82.94
2022-12-11T02:19:48.943Z,80.93
2022-12-11T02:22:29.108Z,81.69
2022-12-11T02:25:23.666Z,80.91
2022-12-11T02:28:05.574Z,80.81
2022-12-11T02:30:37.070Z,81.01
2022-12-11T02:33:05.283Z,82.15
2022-12-11T02:35:39.812Z,81.89
2022-12-11T02:38:11.672Z,80.41
2022-12-11T02:40:40.860Z,80.51
2022-12-11T02:43:11.703Z,81.76
2022-12-11T02:45:42.228Z,80.45
2022-12-11T02:48:11.793Z,81.69
2022-12-11T02:50:44.330Z,80.66
2022-12-11T02:53:13.410Z,80.63
2022-12-11T02:55:44.631Z,79.88
2022-12-11T02:58:19.792Z,80.00
2022-12-11T03:00:46.865Z,80.20
2022-12-11T03:03:14.108Z,79.93
2022-12-11T03:05:41.999Z,81.16
2022-12-11T03:08:08.626Z,80.66
2022-12-11T03:10:35.260Z,81.08
2022-12-11T03:13:02.807Z,80.66
2022-12-11T03:15:41.576Z,80.19
2022-12-11T03:18:26.719Z,81.54
2022-12-11T03:21:05.193Z,80.12
2022-12-11T03:23:48.924Z,82.04
2022-12-11T03:26:18.580Z,81.93
2022-12-11T03:28:58.496Z,81.06
2022-12-11T03:31:42.482Z,80.54
2022-12-11T03:34:16.407Z,81.01
2022-12-11T03:36:45.511Z,81.48
2022-12-11T03:39:24.149Z,80.79
2022-12-11T03:41:52.806Z,81.01
2022-12-11T03:44:21.385Z,80.77
2022-12-11T03:46:50.457Z,80.32
2022-12-11T03:49:22.919Z,80.31
2022-12-11T03:51:52.269Z,81.64
2022-12-11T03:54:19.458Z,80.67
2022-12-11T03:56:48.611Z,81.73
2022-12-11T03:59:15.209Z,81.40
2022-12-11T04:01:42.310Z,82.46
2022-12-11T04:04:09.053Z,81.16
2022-12-11T04:06:35.909Z,81.19
2022-12-11T04:09:02.787Z,82.46
2022-12-11T04:11:35.153Z,82.68
2022-12-11T04:14:21.859Z,81.56
2022-12-11T04:16:48.458Z,82.04
2022-12-11T04:19:34.037Z,81.77
2022-12-11T04:22:19.409Z,81.74
2022-12-11T04:24:49.035Z,81.58
2022-12-11T04:27:36.153Z,81.33
2022-12-11T04:30:05.716Z,80.45
2022-12-11T04:32:32.248Z,81.12
2022-12-11T04:34:58.887Z,80.71
2022-12-11T04:37:26.837Z,80.46
2022-12-11T04:39:53.455Z,79.85
2022-12-11T04:42:20.171Z,80.02
2022-12-11T04:44:46.808Z,80.60
2022-12-11T04:47:15.036Z,81.51
2022-12-11T04:49:41.686Z,82.53
2022-12-11T04:52:08.305Z,81.55
2022-12-11T04:54:34.947Z,81.34
2022-12-11T04:57:01.536Z,81.60
2022-12-11T04:59:28.484Z,82.03
2022-12-11T05:01:55.032Z,81.30
2022-12-11T05:04:21.617Z,81.67
2022-12-11T05:06:50.406Z,82.73
2022-12-11T05:09:17.290Z,82.29
2022-12-11T05:11:43.827Z,82.20
2022-12-11T05:14:10.633Z,81.99
2022-12-11T05:16:37.233Z,82.02
2022-12-11T05:19:03.747Z,82.94
2022-12-11T05:21:34.839Z,82.79
2022-12-11T05:24:01.638Z,83.87
2022-12-11T05:26:28.264Z,83.29
2022-12-11T05:28:55.447Z,82.96
2022-12-11T05:31:26.966Z,82.32
2022-12-11T05:33:54.122Z,83.58
2022-12-11T05:36:29.957Z,83.24
2022-12-11T05:38:58.215Z,82.37
2022-12-11T05:41:27.055Z,82.05
2022-12-11T05:43:53.903Z,81.97
2022-12-11T05:46:25.951Z,80.89
2022-12-11T05:48:55.548Z,81.94
2022-12-11T05:51:22.799Z,82.13
2022-12-11T05:53:52.134Z,82.52
2022-12-11T05:56:27.538Z,82.42
2022-12-11T05:58:55.608Z,82.11
2022-12-11T06:01:42.790Z,82.03
2022-12-11T06:04:11.672Z,81.78
2022-12-11T06:06:38.659Z,82.19
2022-12-11T06:09:06.117Z,81.27
2022-12-11T06:11:33.978Z,82.24
2022-12-11T06:14:02.388Z,81.93
2022-12-11T06:16:29.126Z,81.96
2022-12-11T06:18:58.358Z,81.17
2022-12-11T06:21:29.415Z,81.50
2022-12-11T06:23:58.346Z,81.81
2022-12-11T06:26:25.416Z,81.64
2022-12-11T06:28:52.009Z,81.47
2022-12-11T06:31:19.576Z,82.22
2022-12-11T06:33:46.634Z,82.28
2022-12-11T06:36:16.616Z,82.12
2022-12-11T06:38:44.430Z,81.98
2022-12-11T06:41:11.264Z,82.29
2022-12-11T06:43:40.107Z,81.70
2022-12-11T06:46:18.445Z,81.91
2022-12-11T06:48:45.699Z,81.16
2022-12-11T06:51:23.000Z,81.33
2022-12-11T06:53:54.749Z,80.79
2022-12-11T06:56:22.500Z,80.99
2022-12-11T06:58:49.312Z,80.65
2022-12-11T07:01:18.947Z,81.13
2022-12-11T07:03:45.924Z,81.06
2022-12-11T07:06:13.937Z,80.63
2022-12-11T07:08:40.886Z,80.26
2022-12-11T07:11:09.731Z,81.10
2022-12-11T07:13:36.590Z,80.94
2022-12-11T07:16:05.629Z,81.27
2022-12-11T07:18:32.682Z,80.69
2022-12-11T07:21:02.315Z,80.38
2022-12-11T07:23:29.993Z,81.10
2022-12-11T07:25:57.514Z,81.26
2022-12-11T07:28:24.352Z,81.22
2022-12-11T07:30:51.012Z,81.06
2022-12-11T07:33:18.164Z,81.18
2022-12-11T07:35:44.860Z,80.63
2022-12-11T07:38:11.612Z,80.67
2022-12-11T07:40:38.176Z,80.21
2022-12-11T07:43:04.736Z,80.39
2022-12-11T07:45:31.744Z,80.41
2022-12-11T07:48:00.446Z,80.47
2022-12-11T07:50:28.433Z,80.13
2022-12-11T07:52:55.171Z,79.76
2022-12-11T07:55:21.733Z,79.88
2022-12-11T07:57:48.370Z,80.31
2022-12-11T08:00:15.096Z,80.28
2022-12-11T08:02:44.539Z,79.94
2022-12-11T08:05:14.007Z,80.47
2022-12-11T08:07:40.690Z,80.18
2022-12-11T08:10:07.567Z,79.95
2022-12-11T08:12:35.378Z,80.73
2022-12-11T08:15:02.218Z,79.46
2022-12-11T08:17:31.799Z,80.55
2022-12-11T08:20:00.544Z,80.38
2022-12-11T08:22:28.261Z,79.63
2022-12-11T08:24:54.852Z,79.43
2022-12-11T08:27:21.471Z,80.42
2022-12-11T08:29:48.050Z,80.11
2022-12-11T08:32:16.721Z,80.44
2022-12-11T08:34:43.682Z,80.08
2022-12-11T08:37:11.248Z,79.49
2022-12-11T08:39:38.957Z,79.38
2022-12-11T08:42:06.942Z,79.22
2022-12-11T08:44:33.489Z,78.09
2022-12-11T08:47:00.041Z,78.42
2022-12-11T08:49:29.919Z,78.81
2022-12-11T08:52:00.770Z,77.65
2022-12-11T08:54:27.280Z,78.50
2022-12-11T08:56:57.991Z,77.38
2022-12-11T08:59:28.303Z,78.86
2022-12-11T09:01:55.514Z,78.19
2022-12-11T09:04:22.706Z,76.54
2022-12-11T09:06:49.524Z,75.72
2022-12-11T09:09:16.036Z,76.70
2022-12-11T09:11:42.755Z,77.18
2022-12-11T09:14:12.193Z,76.03
2022-12-11T09:16:42.852Z,77.88
2022-12-11T09:19:19.107Z,75.78
2022-12-11T09:21:45.956Z,75.24
2022-12-11T09:24:16.947Z,76.16
2022-12-11T09:26:43.623Z,75.55
2022-12-11T09:29:11.458Z,75.26
2022-12-11T09:31:38.164Z,74.06
2022-12-11T09:34:07.417Z,75.08
2022-12-11T09:36:34.311Z,76.11
2022-12-11T09:39:06.034Z,76.17
2022-12-11T09:41:38.454Z,76.47
2022-12-11T09:44:11.182Z,74.93
2022-12-11T09:46:39.567Z,74.92
2022-12-11T09:49:18.474Z,74.53
2022-12-11T09:51:51.928Z,75.08
2022-12-11T09:54:19.108Z,73.63
2022-12-11T09:56:54.976Z,73.86
2022-12-11T09:59:29.594Z,72.94
2022-12-11T10:02:22.517Z,72.72
2022-12-11T10:05:00.859Z,73.18
2022-12-11T10:07:43.453Z,71.53
2022-12-11T10:10:16.204Z,71.83
2022-12-11T10:13:03.044Z,71.63
2022-12-11T10:15:48.318Z,72.06
2022-12-11T10:18:21.262Z,71.19
2022-12-11T10:20:50.302Z,71.54
2022-12-11T10:23:22.193Z,73.19
2022-12-11T10:25:56.107Z,74.44
2022-12-11T10:28:22.966Z,74.10
2022-12-11T10:31:15.825Z,73.46
2022-12-11T10:34:00.446Z,73.88
2022-12-11T10:36:30.735Z,74.59
2022-12-11T10:38:57.963Z,73.58
2022-12-11T10:41:36.011Z,74.46
2022-12-11T10:44:25.660Z,74.08
2022-12-11T10:47:12.171Z,73.08
2022-12-11T10:49:43.133Z,72.97
2022-12-11T10:52:13.733Z,70.68
2022-12-11T10:54:43.591Z,72.04
2022-12-11T10:57:14.227Z,69.51
2022-12-11T10:59:45.696Z,69.13
2022-12-11T11:02:18.522Z,69.85
2022-12-11T11:04:45.559Z,69.44
2022-12-11T11:07:13.516Z,69.25
2022-12-11T11:09:40.876Z,69.14
2022-12-11T11:12:24.595Z,69.83
2022-12-11T11:15:06.872Z,70.06
2022-12-11T11:17:49.803Z,68.73
2022-12-11T11:20:25.968Z,68.61
2022-12-11T11:22:56.094Z,67.90
2022-12-11T11:25:28.812Z,68.58
2022-12-11T11:27:55.338Z,68.06
2022-12-11T11:30:31.111Z,68.56
2022-12-11T11:33:02.348Z,68.34
2022-12-11T11:35:31.153Z,68.96
2022-12-11T11:38:20.302Z,68.62
2022-12-11T11:41:05.674Z,64.76
2022-12-11T11:43:43.085Z,66.20
2022-12-11T11:46:22.003Z,65.79
2022-12-11T11:48:48.604Z,65.69
2022-12-11T11:51:31.367Z,67.39
2022-12-11T11:54:01.536Z,67.34
2022-12-11T11:56:36.541Z,67.53
2022-12-11T11:59:18.328Z,66.26
2022-12-11T12:01:45.198Z,67.00
2022-12-11T12:04:12.155Z,66.87
2022-12-11T12:06:56.474Z,67.06
2022-12-11T12:09:42.418Z,66.16
2022-12-11T12:12:09.004Z,65.56
2022-12-11T12:15:05.748Z,64.88
2022-12-11T12:18:16.946Z,64.36
2022-12-11T12:20:53.807Z,65.35
2022-12-11T12:24:06.668Z,64.95
2022-12-11T12:26:36.600Z,65.88
2022-12-11T12:29:11.950Z,65.74
2022-12-11T12:31:53.620Z,66.10
2022-12-11T12:34:39.385Z,66.01
2022-12-11T12:37:23.213Z,66.55
2022-12-11T12:40:28.913Z,66.56
2022-12-11T12:42:55.433Z,67.91
2022-12-11T12:45:28.831Z,68.67
2022-12-11T12:47:55.414Z,69.16
2022-12-11T12:50:26.276Z,68.95
2022-12-11T12:52:54.239Z,68.13
2022-12-11T12:55:27.121Z,69.15
2022-12-11T12:57:57.695Z,68.55
2022-12-11T13:00:38.561Z,67.88
2022-12-11T13:03:19.214Z,67.38
2022-12-11T13:06:07.686Z,68.64
2022-12-11T13:08:38.191Z,67.75
2022-12-11T13:11:11.957Z,67.71
2022-12-11T13:14:06.264Z,68.74
2022-12-11T13:16:39.666Z,68.55
2022-12-11T13:19:18.468Z,67.23
2022-12-11T13:22:00.039Z,66.42
2022-12-11T13:24:28.682Z,65.24
2022-12-11T13:26:55.905Z,65.47
2022-12-11T13:29:32.658Z,64.41
2022-12-11T13:32:02.118Z,66.29
2022-12-11T13:34:33.691Z,64.17
2022-12-11T13:37:02.471Z,65.52
2022-12-11T13:39:39.326Z,65.53
2022-12-11T13:42:20.642Z,64.18
2022-12-11T13:44:50.853Z,63.93
2022-12-11T13:47:19.722Z,64.11
2022-12-11T13:49:49.960Z,64.80
2022-12-11T13:52:28.669Z,65.03
2022-12-11T13:54:56.317Z,64.65
2022-12-11T13:57:25.888Z,64.99
2022-12-11T13:59:54.677Z,65.19
2022-12-11T14:02:29.733Z,65.16
2022-12-11T14:05:02.521Z,65.53
2022-12-11T14:07:36.413Z,65.95
2022-12-11T14:10:28.356Z,67.61
2022-12-11T14:13:02.600Z,67.64
2022-12-11T14:15:31.742Z,68.04
2022-12-11T14:18:00.115Z,66.09
2022-12-11T14:20:31.117Z,66.26
2022-12-11T14:23:19.723Z,66.05
2022-12-11T14:26:23.116Z,67.21
2022-12-11T14:28:50.011Z,66.96
2022-12-11T14:31:23.445Z,67.67
2022-12-11T14:33:55.753Z,65.95
2022-12-11T14:36:23.564Z,66.46
2022-12-11T14:38:56.480Z,67.10
2022-12-11T14:41:35.132Z,65.55
2022-12-11T14:44:04.941Z,67.52
2022-12-11T14:46:43.851Z,67.58
2022-12-11T14:49:35.256Z,66.82
2022-12-11T14:52:04.186Z,67.00
2022-12-11T14:54:39.032Z,66.50
2022-12-11T14:57:07.429Z,68.04
2022-12-11T14:59:44.429Z,67.28
2022-12-11T15:02:29.791Z,68.44
2022-12-11T15:05:03.152Z,68.24
2022-12-11T15:07:29.958Z,68.24
2022-12-11T15:09:56.612Z,67.93
2022-12-11T15:12:24.057Z,68.96
2022-12-11T15:15:15.066Z,67.89
2022-12-11T15:17:41.871Z,67.96
2022-12-11T15:20:20.101Z,67.89
2022-12-11T15:22:46.770Z,68.87
2022-12-11T15:25:25.190Z,68.29
2022-12-11T15:28:00.070Z,68.75
2022-12-11T15:30:32.617Z,69.12
2022-12-11T15:33:04.373Z,69.40
2022-12-11T15:35:31.052Z,68.33
2022-12-11T15:37:59.465Z,69.95
2022-12-11T15:40:27.940Z,69.77
2022-12-11T15:42:57.660Z,70.85
2022-12-11T15:45:28.356Z,70.69
2022-12-11T15:47:55.583Z,71.29
2022-12-11T15:50:28.294Z,69.79
2022-12-11T15:52:56.744Z,70.47
2022-12-11T15:55:34.158Z,69.54
2022-12-11T15:58:07.763Z,70.68
2022-12-11T16:00:34.308Z,69.69
2022-12-11T16:03:01.982Z,70.13
2022-12-11T16:05:29.771Z,69.54
2022-12-11T16:07:59.542Z,71.31
2022-12-11T16:10:27.109Z,71.96
2022-12-11T16:12:59.190Z,71.23
2022-12-11T16:15:27.027Z,71.54
2022-12-11T16:18:02.954Z,73.62
2022-12-11T16:20:31.172Z,71.59
2022-12-11T16:22:59.179Z,71.72
2022-12-11T16:25:29.660Z,71.41
2022-12-11T16:28:00.540Z,71.26
2022-12-11T16:30:28.935Z,71.44
2022-12-11T16:33:00.288Z,71.05
2022-12-11T16:35:28.543Z,72.96
2022-12-11T16:37:59.269Z,70.66
2022-12-11T16:40:25.815Z,72.58
2022-12-11T16:42:52.595Z,72.78
2022-12-11T16:45:22.465Z,71.87
2022-12-11T16:47:49.268Z,71.59
2022-12-11T16:50:16.730Z,72.21
2022-12-11T16:52:44.402Z,69.89
2022-12-11T16:55:15.562Z,71.17
2022-12-11T16:57:42.616Z,71.30
2022-12-11T17:00:12.706Z,71.33
2022-12-11T17:02:39.772Z,71.81
2022-12-11T17:05:08.855Z,70.27
2022-12-11T17:07:37.373Z,69.86
2022-12-11T17:10:07.522Z,70.33
2022-12-11T17:12:34.343Z,70.60
2022-12-11T17:15:00.933Z,71.10
2022-12-11T17:17:28.061Z,70.01
2022-12-11T17:19:55.737Z,70.74
2022-12-11T17:22:22.658Z,70.92
2022-12-11T17:24:49.631Z,70.38
2022-12-11T17:27:16.244Z,70.08
2022-12-11T17:29:43.068Z,71.18
2022-12-11T17:32:09.610Z,70.63
2022-12-11T17:34:38.541Z,69.52
2022-12-11T17:37:06.144Z,69.71
2022-12-11T17:39:33.408Z,69.55
2022-12-11T17:42:00.352Z,69.78
2022-12-11T17:44:31.176Z,70.96
2022-12-11T17:46:58.853Z,70.47
2022-12-11T17:49:25.840Z,69.60
2022-12-11T17:51:55.607Z,70.14
2022-12-11T17:54:23.589Z,69.60
2022-12-11T17:56:53.304Z,70.22
2022-12-11T17:59:19.988Z,69.58
2022-12-11T18:01:46.753Z,69.29
2022-12-11T18:04:13.393Z,69.73
2022-12-11T18:06:40.139Z,69.73
2022-12-11T18:09:07.090Z,70.53
2022-12-11T18:11:34.689Z,70.69
2022-12-11T18:14:01.793Z,71.07
2022-12-11T18:16:37.898Z,70.83
2022-12-11T18:19:06.018Z,71.09
2022-12-11T18:21:35.598Z,70.46
2022-12-11T18:24:02.917Z,70.90
2022-12-11T18:26:29.964Z,69.88
2022-12-11T18:29:00.489Z,71.43
2022-12-11T18:31:29.215Z,70.80
2022-12-11T18:33:56.631Z,70.30
2022-12-11T18:36:23.494Z,70.08
2022-12-11T18:38:52.919Z,70.29
2022-12-11T18:41:20.380Z,69.87
2022-12-11T18:43:47.245Z,70.24
2022-12-11T18:46:16.675Z,70.15
2022-12-11T18:48:44.624Z,71.46
2022-12-11T18:51:17.591Z,73.39
2022-12-11T18:53:44.848Z,73.07
2022-12-11T18:56:15.197Z,74.28
2022-12-11T18:58:42.399Z,73.32
2022-12-11T19:01:13.852Z,73.92
2022-12-11T19:03:44.189Z,72.47
2022-12-11T19:06:13.936Z,73.19
2022-12-11T19:08:41.031Z,72.82
2022-12-11T19:11:07.895Z,73.57
2022-12-11T19:13:35.497Z,73.14
2022-12-11T19:16:02.670Z,72.71
2022-12-11T19:18:31.978Z,73.23
2022-12-11T19:21:06.722Z,73.28
2022-12-11T19:23:36.412Z,73.37
2022-12-11T19:26:03.608Z,72.39
2022-12-11T19:28:30.496Z,73.67
2022-12-11T19:30:57.178Z,73.12
2022-12-11T19:33:24.057Z,73.95
2022-12-11T19:36:01.026Z,73.41
2022-12-11T19:38:28.125Z,73.09
2022-12-11T19:40:55.325Z,72.63
2022-12-11T19:43:21.964Z,72.90
2022-12-11T19:45:48.790Z,73.27
2022-12-11T19:48:15.458Z,74.04
2022-12-11T19:50:41.999Z,74.04
2022-12-11T19:53:08.572Z,73.96
2022-12-11T19:55:38.142Z,74.17
2022-12-11T19:58:07.367Z,72.96
2022-12-11T20:00:37.603Z,72.82
2022-12-11T20:03:04.184Z,73.67
2022-12-11T20:05:30.728Z,73.71
2022-12-11T20:08:14.298Z,74.10
2022-12-11T20:10:44.840Z,74.78
2022-12-11T20:13:11.458Z,73.60
2022-12-11T20:15:38.941Z,75.16
2022-12-11T20:18:05.604Z,73.95
2022-12-11T20:20:32.394Z,73.52
2022-12-11T20:22:59.374Z,74.43
2022-12-11T20:25:27.348Z,74.54
2022-12-11T20:27:55.666Z,73.34
2022-12-11T20:30:23.718Z,73.99
2022-12-11T20:32:51.585Z,73.78
2022-12-11T20:35:18.659Z,73.88
2022-12-11T20:37:45.422Z,73.40
2022-12-11T20:40:13.078Z,73.24
2022-12-11T20:42:40.476Z,72.88
2022-12-11T20:45:07.804Z,73.77
2022-12-11T20:47:34.771Z,73.32
2022-12-11T20:50:01.718Z,72.98
2022-12-11T20:52:28.309Z,72.86
2022-12-11T20:54:54.874Z,73.89
2022-12-11T20:57:21.637Z,73.37
2022-12-11T20:59:49.530Z,73.05
2022-12-11T21:02:16.459Z,73.80
2022-12-11T21:04:43.167Z,75.45
2022-12-11T21:07:10.616Z,75.87
2022-12-11T21:09:38.338Z,75.74
2022-12-11T21:12:06.200Z,76.45
2022-12-11T21:14:32.969Z,76.20
2022-12-11T21:16:59.788Z,76.49
2022-12-11T21:19:26.815Z,76.63
2022-12-11T21:21:55.156Z,75.85
2022-12-11T21:24:27.518Z,77.35
2022-12-11T21:26:56.163Z,77.60
2022-12-11T21:29:24.681Z,77.63
2022-12-11T21:31:51.749Z,75.93
2022-12-11T21:34:25.040Z,76.11
2022-12-11T21:36:56.429Z,76.89
2022-12-11T21:39:24.881Z,75.60
2022-12-11T21:41:52.756Z,75.60
2022-12-11T21:47:06.040Z,76.91
2022-12-11T21:49:32.672Z,77.54
2022-12-11T21:51:59.774Z,78.16
2022-12-11T21:54:26.959Z,77.71
2022-12-11T21:56:54.580Z,77.57
2022-12-11T21:59:21.254Z,77.16
2022-12-11T22:01:47.817Z,76.54
2022-12-11T22:04:15.532Z,78.64
2022-12-11T22:06:43.435Z,78.12
2022-12-11T22:09:12.389Z,76.95
2022-12-11T22:11:41.219Z,77.55
2022-12-11T22:14:18.879Z,76.77
2022-12-11T22:16:45.877Z,78.44
2022-12-11T22:19:12.891Z,78.37
2022-12-11T22:21:39.989Z,79.01
2022-12-11T22:24:07.075Z,77.16
2022-12-11T22:26:33.633Z,77.37
2022-12-11T22:29:00.198Z,77.94
2022-12-11T22:31:30.136Z,77.40
2022-12-11T22:33:56.779Z,76.64
2022-12-11T22:36:26.023Z,76.96
2022-12-11T22:38:53.401Z,77.99
2022-12-11T22:41:29.434Z,78.03
2022-12-11T22:43:57.130Z,76.83
2022-12-11T22:46:27.258Z,76.69
2022-12-11T22:48:54.898Z,77.49
2022-12-11T22:51:23.450Z,77.60
2022-12-11T22:53:50.338Z,77.69
2022-12-11T22:56:17.276Z,77.01
2022-12-11T22:58:43.833Z,78.55
2022-12-11T23:01:17.174Z,79.05
2022-12-11T23:03:43.942Z,78.58
2022-12-11T23:06:13.388Z,78.08
2022-12-11T23:08:40.680Z,78.94
2022-12-11T23:11:20.096Z,78.05
2022-12-11T23:13:46.785Z,78.53
2022-12-11T23:16:14.060Z,78.14
2022-12-11T23:18:40.921Z,78.12
2022-12-11T23:21:08.942Z,79.21
2022-12-11T23:23:35.970Z,79.19
2022-12-11T23:26:04.335Z,78.19
2022-12-11T23:28:31.092Z,78.69
2022-12-11T23:30:57.665Z,77.29
2022-12-11T23:33:25.715Z,77.85
2022-12-11T23:35:52.325Z,78.07
2022-12-11T23:38:20.060Z,77.45
2022-12-11T23:40:46.964Z,77.50
2022-12-11T23:43:13.563Z,77.49
2022-12-11T23:45:43.562Z,77.19
2022-12-11T23:48:10.438Z,78.24
2022-12-11T23:50:37.117Z,77.40
2022-12-11T23:53:03.714Z,77.26
2022-12-11T23:55:30.307Z,77.39
2022-12-11T23:57:57.054Z,77.64
